sensor_id;sensor_type;location;lat;lon;timestamp;P1;durP1;ratioP1;P2;durP2;ratioP2
63193;SDS011;49289;51.670;5.624;2023-11-19T00:00:13;14.90;;;13.30;;
63193;SDS011;49289;51.670;5.624;2023-11-19T00:02:01;17.40;;;13.70;;
63193;SDS011;49289;51.670;5.624;2023-11-19T00:03:48;17.10;;;13.80;;
63193;SDS011;49289;51.670;5.624;2023-11-19T00:05:35;15.20;;;13.60;;
63193;SDS011;49289;51.670;5.624;2023-11-19T00:07:22;18.10;;;14.90;;
63193;SDS011;49289;51.670;5.624;2023-11-19T00:09:09;15.80;;;14.20;;
63193;SDS011;49289;51.670;5.624;2023-11-19T00:10:56;15.90;;;14.20;;
63193;SDS011;49289;51.670;5.624;2023-11-19T00:12:43;18.30;;;15.60;;
63193;SDS011;49289;51.670;5.624;2023-11-19T00:14:30;20.10;;;15.50;;
63193;SDS011;49289;51.670;5.624;2023-11-19T00:16:17;17.80;;;15.90;;
63193;SDS011;49289;51.670;5.624;2023-11-19T00:18:04;17.20;;;14.70;;
63193;SDS011;49289;51.670;5.624;2023-11-19T00:19:51;16.20;;;14.20;;
63193;SDS011;49289;51.670;5.624;2023-11-19T00:21:38;16.20;;;14.40;;
63193;SDS011;49289;51.670;5.624;2023-11-19T00:23:25;19.50;;;14.40;;
63193;SDS011;49289;51.670;5.624;2023-11-19T00:25:12;16.80;;;14.10;;
63193;SDS011;49289;51.670;5.624;2023-11-19T00:27:00;18.60;;;13.70;;
63193;SDS011;49289;51.670;5.624;2023-11-19T00:28:47;23.20;;;13.70;;
63193;SDS011;49289;51.670;5.624;2023-11-19T00:30:34;18.50;;;13.50;;
63193;SDS011;49289;51.670;5.624;2023-11-19T00:32:21;20.20;;;13.30;;
63193;SDS011;49289;51.670;5.624;2023-11-19T00:34:08;18.10;;;14.00;;
63193;SDS011;49289;51.670;5.624;2023-11-19T00:35:55;18.00;;;14.10;;
63193;SDS011;49289;51.670;5.624;2023-11-19T00:37:42;17.50;;;13.20;;
63193;SDS011;49289;51.670;5.624;2023-11-19T00:39:29;17.40;;;13.10;;
63193;SDS011;49289;51.670;5.624;2023-11-19T00:41:16;16.50;;;12.30;;
63193;SDS011;49289;51.670;5.624;2023-11-19T00:43:03;19.50;;;13.10;;
63193;SDS011;49289;51.670;5.624;2023-11-19T00:44:50;15.60;;;11.60;;
63193;SDS011;49289;51.670;5.624;2023-11-19T00:46:37;18.60;;;12.10;;
63193;SDS011;49289;51.670;5.624;2023-11-19T00:48:24;18.20;;;13.10;;
63193;SDS011;49289;51.670;5.624;2023-11-19T00:50:12;19.60;;;12.50;;
63193;SDS011;49289;51.670;5.624;2023-11-19T00:51:59;17.20;;;12.40;;
63193;SDS011;49289;51.670;5.624;2023-11-19T00:53:47;18.40;;;12.30;;
63193;SDS011;49289;51.670;5.624;2023-11-19T00:55:34;21.60;;;11.70;;
63193;SDS011;49289;51.670;5.624;2023-11-19T00:57:21;18.00;;;12.10;;
63193;SDS011;49289;51.670;5.624;2023-11-19T00:59:08;21.60;;;12.80;;
63193;SDS011;49289;51.670;5.624;2023-11-19T01:00:55;20.10;;;12.20;;
63193;SDS011;49289;51.670;5.624;2023-11-19T01:02:42;17.60;;;11.60;;
63193;SDS011;49289;51.670;5.624;2023-11-19T01:04:29;24.10;;;12.20;;
63193;SDS011;49289;51.670;5.624;2023-11-19T01:06:26;18.50;;;10.90;;
63193;SDS011;49289;51.670;5.624;2023-11-19T01:08:12;18.20;;;10.90;;
63193;SDS011;49289;51.670;5.624;2023-11-19T01:09:59;21.00;;;11.00;;
63193;SDS011;49289;51.670;5.624;2023-11-19T01:11:46;20.60;;;10.40;;
63193;SDS011;49289;51.670;5.624;2023-11-19T01:13:33;20.30;;;9.90;;
63193;SDS011;49289;51.670;5.624;2023-11-19T01:15:20;20.90;;;11.00;;
63193;SDS011;49289;51.670;5.624;2023-11-19T01:17:07;20.20;;;10.40;;
63193;SDS011;49289;51.670;5.624;2023-11-19T01:18:54;20.30;;;9.40;;
63193;SDS011;49289;51.670;5.624;2023-11-19T01:20:41;20.30;;;9.10;;
63193;SDS011;49289;51.670;5.624;2023-11-19T01:22:28;19.00;;;8.30;;
63193;SDS011;49289;51.670;5.624;2023-11-19T01:24:15;20.10;;;8.00;;
63193;SDS011;49289;51.670;5.624;2023-11-19T01:26:02;20.10;;;8.30;;
63193;SDS011;49289;51.670;5.624;2023-11-19T01:27:49;17.70;;;7.90;;
63193;SDS011;49289;51.670;5.624;2023-11-19T01:29:36;19.80;;;8.50;;
63193;SDS011;49289;51.670;5.624;2023-11-19T01:31:23;17.60;;;8.00;;
63193;SDS011;49289;51.670;5.624;2023-11-19T01:33:10;17.60;;;7.90;;
63193;SDS011;49289;51.670;5.624;2023-11-19T01:34:58;21.50;;;7.60;;
63193;SDS011;49289;51.670;5.624;2023-11-19T01:36:46;16.30;;;6.80;;
63193;SDS011;49289;51.670;5.624;2023-11-19T01:38:32;18.70;;;6.90;;
63193;SDS011;49289;51.670;5.624;2023-11-19T01:40:19;18.60;;;7.00;;
63193;SDS011;49289;51.670;5.624;2023-11-19T01:42:06;15.80;;;6.80;;
63193;SDS011;49289;51.670;5.624;2023-11-19T01:43:53;19.30;;;6.90;;
63193;SDS011;49289;51.670;5.624;2023-11-19T01:45:40;23.30;;;7.30;;
63193;SDS011;49289;51.670;5.624;2023-11-19T01:47:27;18.20;;;6.70;;
63193;SDS011;49289;51.670;5.624;2023-11-19T01:49:14;19.10;;;6.30;;
63193;SDS011;49289;51.670;5.624;2023-11-19T01:51:01;22.90;;;6.40;;
63193;SDS011;49289;51.670;5.624;2023-11-19T01:52:49;23.00;;;6.30;;
63193;SDS011;49289;51.670;5.624;2023-11-19T01:54:36;19.40;;;5.70;;
63193;SDS011;49289;51.670;5.624;2023-11-19T01:56:23;20.80;;;5.60;;
63193;SDS011;49289;51.670;5.624;2023-11-19T01:58:10;18.90;;;5.80;;
63193;SDS011;49289;51.670;5.624;2023-11-19T01:59:57;16.50;;;5.50;;
63193;SDS011;49289;51.670;5.624;2023-11-19T02:01:44;14.70;;;6.20;;
63193;SDS011;49289;51.670;5.624;2023-11-19T02:03:31;22.80;;;6.10;;
63193;SDS011;49289;51.670;5.624;2023-11-19T02:05:18;15.40;;;5.70;;
63193;SDS011;49289;51.670;5.624;2023-11-19T02:07:05;16.50;;;5.80;;
63193;SDS011;49289;51.670;5.624;2023-11-19T02:08:52;17.30;;;6.10;;
63193;SDS011;49289;51.670;5.624;2023-11-19T02:10:39;17.00;;;5.60;;
63193;SDS011;49289;51.670;5.624;2023-11-19T02:12:26;18.10;;;5.90;;
63193;SDS011;49289;51.670;5.624;2023-11-19T02:14:13;20.20;;;5.70;;
63193;SDS011;49289;51.670;5.624;2023-11-19T02:16:00;19.50;;;5.60;;
63193;SDS011;49289;51.670;5.624;2023-11-19T02:17:47;21.50;;;5.50;;
63193;SDS011;49289;51.670;5.624;2023-11-19T02:19:34;20.60;;;5.80;;
63193;SDS011;49289;51.670;5.624;2023-11-19T02:21:21;23.20;;;5.50;;
63193;SDS011;49289;51.670;5.624;2023-11-19T02:23:08;22.90;;;5.40;;
63193;SDS011;49289;51.670;5.624;2023-11-19T02:25:07;22.20;;;5.80;;
63193;SDS011;49289;51.670;5.624;2023-11-19T02:26:44;19.50;;;5.30;;
63193;SDS011;49289;51.670;5.624;2023-11-19T02:28:30;23.30;;;5.50;;
63193;SDS011;49289;51.670;5.624;2023-11-19T02:30:17;19.70;;;5.40;;
63193;SDS011;49289;51.670;5.624;2023-11-19T02:32:04;20.30;;;5.30;;
63193;SDS011;49289;51.670;5.624;2023-11-19T02:33:51;17.20;;;5.00;;
63193;SDS011;49289;51.670;5.624;2023-11-19T02:35:38;23.70;;;5.60;;
63193;SDS011;49289;51.670;5.624;2023-11-19T02:37:25;19.30;;;5.40;;
63193;SDS011;49289;51.670;5.624;2023-11-19T02:39:12;21.60;;;5.70;;
63193;SDS011;49289;51.670;5.624;2023-11-19T02:41:01;18.90;;;5.30;;
63193;SDS011;49289;51.670;5.624;2023-11-19T02:42:46;20.20;;;5.30;;
63193;SDS011;49289;51.670;5.624;2023-11-19T02:44:33;23.40;;;5.50;;
63193;SDS011;49289;51.670;5.624;2023-11-19T02:46:20;20.20;;;5.70;;
63193;SDS011;49289;51.670;5.624;2023-11-19T02:48:07;19.20;;;5.30;;
63193;SDS011;49289;51.670;5.624;2023-11-19T02:49:54;21.40;;;5.30;;
63193;SDS011;49289;51.670;5.624;2023-11-19T02:51:41;20.60;;;5.60;;
63193;SDS011;49289;51.670;5.624;2023-11-19T02:53:28;20.80;;;5.90;;
63193;SDS011;49289;51.670;5.624;2023-11-19T02:55:15;26.40;;;6.00;;
63193;SDS011;49289;51.670;5.624;2023-11-19T02:57:02;20.80;;;5.60;;
63193;SDS011;49289;51.670;5.624;2023-11-19T02:58:50;25.10;;;5.80;;
63193;SDS011;49289;51.670;5.624;2023-11-19T03:00:39;22.90;;;5.60;;
63193;SDS011;49289;51.670;5.624;2023-11-19T03:02:23;26.10;;;5.70;;
63193;SDS011;49289;51.670;5.624;2023-11-19T03:04:11;25.50;;;6.40;;
63193;SDS011;49289;51.670;5.624;2023-11-19T03:05:58;27.40;;;5.90;;
63193;SDS011;49289;51.670;5.624;2023-11-19T03:07:45;30.80;;;6.00;;
63193;SDS011;49289;51.670;5.624;2023-11-19T03:09:32;26.80;;;5.60;;
63193;SDS011;49289;51.670;5.624;2023-11-19T03:11:19;28.40;;;5.80;;
63193;SDS011;49289;51.670;5.624;2023-11-19T03:13:06;28.00;;;5.80;;
63193;SDS011;49289;51.670;5.624;2023-11-19T03:14:54;28.80;;;6.20;;
63193;SDS011;49289;51.670;5.624;2023-11-19T03:16:41;30.90;;;6.20;;
63193;SDS011;49289;51.670;5.624;2023-11-19T03:18:30;33.90;;;6.40;;
63193;SDS011;49289;51.670;5.624;2023-11-19T03:20:17;35.10;;;6.30;;
63193;SDS011;49289;51.670;5.624;2023-11-19T03:22:04;34.80;;;6.90;;
63193;SDS011;49289;51.670;5.624;2023-11-19T03:23:51;36.30;;;6.70;;
63193;SDS011;49289;51.670;5.624;2023-11-19T03:25:38;35.50;;;5.90;;
63193;SDS011;49289;51.670;5.624;2023-11-19T03:27:25;31.80;;;6.70;;
63193;SDS011;49289;51.670;5.624;2023-11-19T03:29:12;31.10;;;6.40;;
63193;SDS011;49289;51.670;5.624;2023-11-19T03:30:59;28.40;;;6.10;;
63193;SDS011;49289;51.670;5.624;2023-11-19T03:32:46;33.30;;;6.10;;
63193;SDS011;49289;51.670;5.624;2023-11-19T03:34:33;29.60;;;5.90;;
63193;SDS011;49289;51.670;5.624;2023-11-19T03:36:20;31.20;;;5.60;;
63193;SDS011;49289;51.670;5.624;2023-11-19T03:38:07;31.10;;;5.50;;
63193;SDS011;49289;51.670;5.624;2023-11-19T03:39:54;34.70;;;6.10;;
63193;SDS011;49289;51.670;5.624;2023-11-19T03:41:42;30.80;;;6.10;;
63193;SDS011;49289;51.670;5.624;2023-11-19T03:43:30;38.70;;;6.20;;
63193;SDS011;49289;51.670;5.624;2023-11-19T03:45:18;31.80;;;5.80;;
63193;SDS011;49289;51.670;5.624;2023-11-19T03:47:04;39.20;;;6.90;;
63193;SDS011;49289;51.670;5.624;2023-11-19T03:48:52;31.60;;;5.40;;
63193;SDS011;49289;51.670;5.624;2023-11-19T03:50:39;32.60;;;6.20;;
63193;SDS011;49289;51.670;5.624;2023-11-19T03:52:26;35.10;;;6.60;;
63193;SDS011;49289;51.670;5.624;2023-11-19T03:54:13;34.20;;;5.90;;
63193;SDS011;49289;51.670;5.624;2023-11-19T03:56:00;36.60;;;6.70;;
63193;SDS011;49289;51.670;5.624;2023-11-19T03:57:47;35.10;;;6.00;;
63193;SDS011;49289;51.670;5.624;2023-11-19T03:59:34;29.90;;;6.70;;
63193;SDS011;49289;51.670;5.624;2023-11-19T04:01:21;31.90;;;6.40;;
63193;SDS011;49289;51.670;5.624;2023-11-19T04:03:08;34.40;;;6.10;;
63193;SDS011;49289;51.670;5.624;2023-11-19T04:04:55;29.70;;;6.00;;
63193;SDS011;49289;51.670;5.624;2023-11-19T04:06:42;34.30;;;5.90;;
63193;SDS011;49289;51.670;5.624;2023-11-19T04:08:29;33.30;;;6.10;;
63193;SDS011;49289;51.670;5.624;2023-11-19T04:10:15;33.60;;;6.00;;
63193;SDS011;49289;51.670;5.624;2023-11-19T04:12:03;36.30;;;6.10;;
63193;SDS011;49289;51.670;5.624;2023-11-19T04:13:50;31.80;;;6.20;;
63193;SDS011;49289;51.670;5.624;2023-11-19T04:15:37;36.20;;;6.60;;
63193;SDS011;49289;51.670;5.624;2023-11-19T04:17:24;40.50;;;7.00;;
63193;SDS011;49289;51.670;5.624;2023-11-19T04:19:11;30.60;;;5.50;;
63193;SDS011;49289;51.670;5.624;2023-11-19T04:20:58;32.90;;;7.10;;
63193;SDS011;49289;51.670;5.624;2023-11-19T04:22:45;35.50;;;6.80;;
63193;SDS011;49289;51.670;5.624;2023-11-19T04:24:32;36.40;;;6.90;;
63193;SDS011;49289;51.670;5.624;2023-11-19T04:26:19;34.40;;;6.90;;
63193;SDS011;49289;51.670;5.624;2023-11-19T04:28:06;39.60;;;6.60;;
63193;SDS011;49289;51.670;5.624;2023-11-19T04:29:38;37.50;;;6.80;;
63193;SDS011;49289;51.670;5.624;2023-11-19T04:31:25;38.50;;;6.80;;
63193;SDS011;49289;51.670;5.624;2023-11-19T04:33:14;39.50;;;6.70;;
63193;SDS011;49289;51.670;5.624;2023-11-19T04:35:01;38.60;;;6.90;;
63193;SDS011;49289;51.670;5.624;2023-11-19T04:36:48;39.50;;;6.30;;
63193;SDS011;49289;51.670;5.624;2023-11-19T04:38:35;33.70;;;5.90;;
63193;SDS011;49289;51.670;5.624;2023-11-19T04:40:22;38.20;;;6.60;;
63193;SDS011;49289;51.670;5.624;2023-11-19T04:42:09;34.90;;;6.60;;
63193;SDS011;49289;51.670;5.624;2023-11-19T04:43:56;41.20;;;6.70;;
63193;SDS011;49289;51.670;5.624;2023-11-19T04:45:28;33.20;;;6.40;;
63193;SDS011;49289;51.670;5.624;2023-11-19T04:47:15;34.60;;;6.30;;
63193;SDS011;49289;51.670;5.624;2023-11-19T04:49:02;32.20;;;6.40;;
63193;SDS011;49289;51.670;5.624;2023-11-19T04:50:49;33.50;;;6.50;;
63193;SDS011;49289;51.670;5.624;2023-11-19T04:52:36;35.80;;;6.30;;
63193;SDS011;49289;51.670;5.624;2023-11-19T04:54:23;35.90;;;6.60;;
63193;SDS011;49289;51.670;5.624;2023-11-19T04:56:16;38.90;;;6.50;;
63193;SDS011;49289;51.670;5.624;2023-11-19T04:58:02;33.40;;;6.50;;
63193;SDS011;49289;51.670;5.624;2023-11-19T04:59:50;39.60;;;6.90;;
63193;SDS011;49289;51.670;5.624;2023-11-19T05:01:37;36.90;;;6.60;;
63193;SDS011;49289;51.670;5.624;2023-11-19T05:03:24;35.60;;;6.70;;
63193;SDS011;49289;51.670;5.624;2023-11-19T05:05:11;35.80;;;5.90;;
63193;SDS011;49289;51.670;5.624;2023-11-19T05:06:58;32.00;;;6.40;;
63193;SDS011;49289;51.670;5.624;2023-11-19T05:08:45;37.60;;;6.30;;
63193;SDS011;49289;51.670;5.624;2023-11-19T05:10:32;35.10;;;6.10;;
63193;SDS011;49289;51.670;5.624;2023-11-19T05:12:19;38.10;;;7.30;;
63193;SDS011;49289;51.670;5.624;2023-11-19T05:14:07;37.10;;;7.40;;
63193;SDS011;49289;51.670;5.624;2023-11-19T05:15:54;40.50;;;7.10;;
63193;SDS011;49289;51.670;5.624;2023-11-19T05:17:41;34.40;;;7.10;;
63193;SDS011;49289;51.670;5.624;2023-11-19T05:19:28;35.20;;;6.70;;
63193;SDS011;49289;51.670;5.624;2023-11-19T05:21:15;35.10;;;6.60;;
63193;SDS011;49289;51.670;5.624;2023-11-19T05:23:02;42.10;;;7.00;;
63193;SDS011;49289;51.670;5.624;2023-11-19T05:24:49;42.10;;;7.40;;
63193;SDS011;49289;51.670;5.624;2023-11-19T05:26:36;33.50;;;6.40;;
63193;SDS011;49289;51.670;5.624;2023-11-19T05:28:23;38.20;;;7.00;;
63193;SDS011;49289;51.670;5.624;2023-11-19T05:30:11;33.90;;;6.90;;
63193;SDS011;49289;51.670;5.624;2023-11-19T05:31:58;37.60;;;6.90;;
63193;SDS011;49289;51.670;5.624;2023-11-19T05:33:45;35.80;;;6.90;;
63193;SDS011;49289;51.670;5.624;2023-11-19T05:35:32;33.20;;;6.50;;
63193;SDS011;49289;51.670;5.624;2023-11-19T05:37:20;40.60;;;6.90;;
63193;SDS011;49289;51.670;5.624;2023-11-19T05:39:07;36.40;;;6.80;;
63193;SDS011;49289;51.670;5.624;2023-11-19T05:40:54;35.80;;;6.40;;
63193;SDS011;49289;51.670;5.624;2023-11-19T05:42:43;33.60;;;6.10;;
63193;SDS011;49289;51.670;5.624;2023-11-19T05:44:30;31.80;;;7.00;;
63193;SDS011;49289;51.670;5.624;2023-11-19T05:46:16;35.20;;;6.50;;
63193;SDS011;49289;51.670;5.624;2023-11-19T05:48:03;34.40;;;6.00;;
63193;SDS011;49289;51.670;5.624;2023-11-19T05:49:50;35.10;;;6.60;;
63193;SDS011;49289;51.670;5.624;2023-11-19T05:51:38;43.50;;;6.50;;
63193;SDS011;49289;51.670;5.624;2023-11-19T05:53:25;35.80;;;6.40;;
63193;SDS011;49289;51.670;5.624;2023-11-19T05:55:12;32.20;;;6.00;;
63193;SDS011;49289;51.670;5.624;2023-11-19T05:56:59;34.10;;;6.80;;
63193;SDS011;49289;51.670;5.624;2023-11-19T05:58:46;32.60;;;6.80;;
63193;SDS011;49289;51.670;5.624;2023-11-19T06:00:33;42.00;;;6.70;;
63193;SDS011;49289;51.670;5.624;2023-11-19T06:02:20;36.10;;;6.40;;
63193;SDS011;49289;51.670;5.624;2023-11-19T06:04:07;43.20;;;6.50;;
63193;SDS011;49289;51.670;5.624;2023-11-19T06:05:54;33.70;;;7.00;;
63193;SDS011;49289;51.670;5.624;2023-11-19T06:07:41;33.00;;;7.00;;
63193;SDS011;49289;51.670;5.624;2023-11-19T06:09:28;32.50;;;5.60;;
63193;SDS011;49289;51.670;5.624;2023-11-19T06:11:15;30.70;;;6.40;;
63193;SDS011;49289;51.670;5.624;2023-11-19T06:13:03;35.90;;;6.90;;
63193;SDS011;49289;51.670;5.624;2023-11-19T06:14:50;37.40;;;7.00;;
63193;SDS011;49289;51.670;5.624;2023-11-19T06:16:37;41.40;;;7.10;;
63193;SDS011;49289;51.670;5.624;2023-11-19T06:18:24;40.10;;;6.90;;
63193;SDS011;49289;51.670;5.624;2023-11-19T06:20:12;35.80;;;7.10;;
63193;SDS011;49289;51.670;5.624;2023-11-19T06:21:59;35.80;;;6.80;;
63193;SDS011;49289;51.670;5.624;2023-11-19T06:23:46;38.20;;;7.10;;
63193;SDS011;49289;51.670;5.624;2023-11-19T06:25:33;42.20;;;7.70;;
63193;SDS011;49289;51.670;5.624;2023-11-19T06:27:20;39.50;;;7.50;;
63193;SDS011;49289;51.670;5.624;2023-11-19T06:29:07;41.50;;;7.20;;
63193;SDS011;49289;51.670;5.624;2023-11-19T06:30:54;37.70;;;6.60;;
63193;SDS011;49289;51.670;5.624;2023-11-19T06:32:41;35.30;;;6.70;;
63193;SDS011;49289;51.670;5.624;2023-11-19T06:34:28;36.60;;;6.80;;
63193;SDS011;49289;51.670;5.624;2023-11-19T06:36:15;35.20;;;6.90;;
63193;SDS011;49289;51.670;5.624;2023-11-19T06:38:02;32.60;;;6.60;;
63193;SDS011;49289;51.670;5.624;2023-11-19T06:39:49;35.40;;;6.60;;
63193;SDS011;49289;51.670;5.624;2023-11-19T06:41:36;40.90;;;6.80;;
63193;SDS011;49289;51.670;5.624;2023-11-19T06:43:23;34.40;;;6.60;;
63193;SDS011;49289;51.670;5.624;2023-11-19T06:45:11;37.40;;;6.60;;
63193;SDS011;49289;51.670;5.624;2023-11-19T06:46:58;36.30;;;7.00;;
63193;SDS011;49289;51.670;5.624;2023-11-19T06:48:45;35.00;;;6.40;;
63193;SDS011;49289;51.670;5.624;2023-11-19T06:50:32;42.00;;;8.10;;
63193;SDS011;49289;51.670;5.624;2023-11-19T06:52:19;36.30;;;7.70;;
63193;SDS011;49289;51.670;5.624;2023-11-19T06:54:06;34.90;;;7.10;;
63193;SDS011;49289;51.670;5.624;2023-11-19T06:55:53;35.50;;;7.50;;
63193;SDS011;49289;51.670;5.624;2023-11-19T06:57:40;33.80;;;6.70;;
63193;SDS011;49289;51.670;5.624;2023-11-19T06:59:27;37.40;;;6.80;;
63193;SDS011;49289;51.670;5.624;2023-11-19T07:01:14;36.90;;;7.20;;
63193;SDS011;49289;51.670;5.624;2023-11-19T07:03:01;39.50;;;7.00;;
63193;SDS011;49289;51.670;5.624;2023-11-19T07:04:48;40.80;;;7.00;;
63193;SDS011;49289;51.670;5.624;2023-11-19T07:06:35;35.30;;;7.10;;
63193;SDS011;49289;51.670;5.624;2023-11-19T07:08:08;38.00;;;7.00;;
63193;SDS011;49289;51.670;5.624;2023-11-19T07:09:55;38.30;;;7.20;;
63193;SDS011;49289;51.670;5.624;2023-11-19T07:11:42;37.20;;;6.40;;
63193;SDS011;49289;51.670;5.624;2023-11-19T07:13:29;40.50;;;7.30;;
63193;SDS011;49289;51.670;5.624;2023-11-19T07:15:16;41.10;;;7.30;;
63193;SDS011;49289;51.670;5.624;2023-11-19T07:17:03;43.20;;;7.40;;
63193;SDS011;49289;51.670;5.624;2023-11-19T07:18:50;38.50;;;7.00;;
63193;SDS011;49289;51.670;5.624;2023-11-19T07:20:37;37.00;;;6.60;;
63193;SDS011;49289;51.670;5.624;2023-11-19T07:22:24;40.90;;;7.30;;
63193;SDS011;49289;51.670;5.624;2023-11-19T07:24:12;35.50;;;6.40;;
63193;SDS011;49289;51.670;5.624;2023-11-19T07:25:59;37.60;;;6.80;;
63193;SDS011;49289;51.670;5.624;2023-11-19T07:27:46;42.30;;;7.30;;
63193;SDS011;49289;51.670;5.624;2023-11-19T07:29:33;35.10;;;6.80;;
63193;SDS011;49289;51.670;5.624;2023-11-19T07:31:20;42.40;;;7.00;;
63193;SDS011;49289;51.670;5.624;2023-11-19T07:33:07;35.50;;;6.60;;
63193;SDS011;49289;51.670;5.624;2023-11-19T07:34:54;41.40;;;7.80;;
63193;SDS011;49289;51.670;5.624;2023-11-19T07:36:41;37.80;;;6.50;;
63193;SDS011;49289;51.670;5.624;2023-11-19T07:38:28;41.40;;;6.90;;
63193;SDS011;49289;51.670;5.624;2023-11-19T07:40:15;40.30;;;7.30;;
63193;SDS011;49289;51.670;5.624;2023-11-19T07:42:02;39.30;;;7.90;;
63193;SDS011;49289;51.670;5.624;2023-11-19T07:43:49;36.30;;;7.60;;
63193;SDS011;49289;51.670;5.624;2023-11-19T07:45:37;39.20;;;6.90;;
63193;SDS011;49289;51.670;5.624;2023-11-19T07:47:24;39.10;;;6.50;;
63193;SDS011;49289;51.670;5.624;2023-11-19T07:49:11;32.90;;;6.40;;
63193;SDS011;49289;51.670;5.624;2023-11-19T07:50:58;39.30;;;6.60;;
63193;SDS011;49289;51.670;5.624;2023-11-19T07:52:45;42.20;;;7.60;;
63193;SDS011;49289;51.670;5.624;2023-11-19T07:54:31;36.30;;;7.00;;
63193;SDS011;49289;51.670;5.624;2023-11-19T07:56:19;42.60;;;7.30;;
63193;SDS011;49289;51.670;5.624;2023-11-19T07:58:06;37.30;;;6.80;;
63193;SDS011;49289;51.670;5.624;2023-11-19T07:59:53;40.30;;;7.60;;
63193;SDS011;49289;51.670;5.624;2023-11-19T08:01:40;40.80;;;7.10;;
63193;SDS011;49289;51.670;5.624;2023-11-19T08:03:27;40.40;;;6.70;;
63193;SDS011;49289;51.670;5.624;2023-11-19T08:05:14;42.30;;;7.60;;
63193;SDS011;49289;51.670;5.624;2023-11-19T08:07:01;37.30;;;6.60;;
63193;SDS011;49289;51.670;5.624;2023-11-19T08:08:48;41.00;;;7.80;;
63193;SDS011;49289;51.670;5.624;2023-11-19T08:10:35;42.30;;;7.70;;
63193;SDS011;49289;51.670;5.624;2023-11-19T08:12:22;45.80;;;7.80;;
63193;SDS011;49289;51.670;5.624;2023-11-19T08:14:09;38.90;;;7.20;;
63193;SDS011;49289;51.670;5.624;2023-11-19T08:15:56;40.20;;;6.80;;
63193;SDS011;49289;51.670;5.624;2023-11-19T08:17:45;39.50;;;7.40;;
63193;SDS011;49289;51.670;5.624;2023-11-19T08:19:32;34.70;;;6.30;;
63193;SDS011;49289;51.670;5.624;2023-11-19T08:21:19;37.80;;;6.70;;
63193;SDS011;49289;51.670;5.624;2023-11-19T08:23:06;37.90;;;6.80;;
63193;SDS011;49289;51.670;5.624;2023-11-19T08:24:53;39.00;;;6.80;;
63193;SDS011;49289;51.670;5.624;2023-11-19T08:26:40;39.80;;;7.40;;
63193;SDS011;49289;51.670;5.624;2023-11-19T08:28:27;43.50;;;7.00;;
63193;SDS011;49289;51.670;5.624;2023-11-19T08:30:15;34.50;;;6.40;;
63193;SDS011;49289;51.670;5.624;2023-11-19T08:32:02;36.00;;;7.20;;
63193;SDS011;49289;51.670;5.624;2023-11-19T08:33:50;36.80;;;6.50;;
63193;SDS011;49289;51.670;5.624;2023-11-19T08:35:37;40.20;;;6.90;;
63193;SDS011;49289;51.670;5.624;2023-11-19T08:37:24;39.10;;;7.20;;
63193;SDS011;49289;51.670;5.624;2023-11-19T08:39:11;33.50;;;6.70;;
63193;SDS011;49289;51.670;5.624;2023-11-19T08:40:58;37.60;;;6.70;;
63193;SDS011;49289;51.670;5.624;2023-11-19T08:42:45;35.90;;;7.00;;
63193;SDS011;49289;51.670;5.624;2023-11-19T08:44:32;39.30;;;6.80;;
63193;SDS011;49289;51.670;5.624;2023-11-19T08:46:19;37.90;;;6.80;;
63193;SDS011;49289;51.670;5.624;2023-11-19T08:48:06;34.90;;;6.70;;
63193;SDS011;49289;51.670;5.624;2023-11-19T08:49:53;32.60;;;6.90;;
63193;SDS011;49289;51.670;5.624;2023-11-19T08:51:40;33.60;;;6.10;;
63193;SDS011;49289;51.670;5.624;2023-11-19T08:53:27;40.90;;;7.10;;
63193;SDS011;49289;51.670;5.624;2023-11-19T08:55:14;34.30;;;6.80;;
63193;SDS011;49289;51.670;5.624;2023-11-19T08:57:01;38.60;;;6.60;;
63193;SDS011;49289;51.670;5.624;2023-11-19T08:58:48;35.40;;;6.90;;
63193;SDS011;49289;51.670;5.624;2023-11-19T08:59:38;37.00;;;7.20;;
63193;SDS011;49289;51.670;5.624;2023-11-19T09:01:25;35.40;;;6.90;;
63193;SDS011;49289;51.670;5.624;2023-11-19T09:03:12;37.70;;;6.70;;
63193;SDS011;49289;51.670;5.624;2023-11-19T09:04:59;37.60;;;7.40;;
63193;SDS011;49289;51.670;5.624;2023-11-19T09:06:46;36.40;;;6.10;;
63193;SDS011;49289;51.670;5.624;2023-11-19T09:08:33;35.20;;;6.40;;
63193;SDS011;49289;51.670;5.624;2023-11-19T09:10:20;46.30;;;7.20;;
63193;SDS011;49289;51.670;5.624;2023-11-19T09:12:07;31.40;;;6.50;;
63193;SDS011;49289;51.670;5.624;2023-11-19T09:13:55;32.00;;;6.70;;
63193;SDS011;49289;51.670;5.624;2023-11-19T09:15:42;40.90;;;6.40;;
63193;SDS011;49289;51.670;5.624;2023-11-19T09:17:29;37.80;;;7.40;;
63193;SDS011;49289;51.670;5.624;2023-11-19T09:19:16;36.60;;;7.30;;
63193;SDS011;49289;51.670;5.624;2023-11-19T09:21:03;36.20;;;6.50;;
63193;SDS011;49289;51.670;5.624;2023-11-19T09:22:50;42.30;;;7.40;;
63193;SDS011;49289;51.670;5.624;2023-11-19T09:24:37;34.50;;;7.00;;
63193;SDS011;49289;51.670;5.624;2023-11-19T09:26:24;40.10;;;7.00;;
63193;SDS011;49289;51.670;5.624;2023-11-19T09:28:11;36.20;;;7.00;;
63193;SDS011;49289;51.670;5.624;2023-11-19T09:29:58;41.70;;;7.70;;
63193;SDS011;49289;51.670;5.624;2023-11-19T09:31:45;38.10;;;6.90;;
63193;SDS011;49289;51.670;5.624;2023-11-19T09:33:32;43.40;;;7.60;;
63193;SDS011;49289;51.670;5.624;2023-11-19T09:35:19;44.90;;;8.20;;
63193;SDS011;49289;51.670;5.624;2023-11-19T09:37:06;36.20;;;7.10;;
63193;SDS011;49289;51.670;5.624;2023-11-19T09:38:53;38.90;;;7.00;;
63193;SDS011;49289;51.670;5.624;2023-11-19T09:40:40;35.70;;;6.20;;
63193;SDS011;49289;51.670;5.624;2023-11-19T09:42:27;42.30;;;7.40;;
63193;SDS011;49289;51.670;5.624;2023-11-19T09:44:15;37.70;;;6.80;;
63193;SDS011;49289;51.670;5.624;2023-11-19T09:46:04;40.40;;;7.40;;
63193;SDS011;49289;51.670;5.624;2023-11-19T09:47:49;32.30;;;6.40;;
63193;SDS011;49289;51.670;5.624;2023-11-19T09:49:36;36.60;;;6.80;;
63193;SDS011;49289;51.670;5.624;2023-11-19T09:51:24;36.20;;;6.50;;
63193;SDS011;49289;51.670;5.624;2023-11-19T09:53:11;42.50;;;6.90;;
63193;SDS011;49289;51.670;5.624;2023-11-19T09:54:58;39.10;;;7.60;;
63193;SDS011;49289;51.670;5.624;2023-11-19T09:56:45;38.60;;;7.40;;
63193;SDS011;49289;51.670;5.624;2023-11-19T09:58:32;40.10;;;7.40;;
63193;SDS011;49289;51.670;5.624;2023-11-19T10:00:19;38.70;;;7.30;;
63193;SDS011;49289;51.670;5.624;2023-11-19T10:02:06;36.10;;;7.00;;
63193;SDS011;49289;51.670;5.624;2023-11-19T10:03:54;35.00;;;6.50;;
63193;SDS011;49289;51.670;5.624;2023-11-19T10:05:40;33.90;;;6.00;;
63193;SDS011;49289;51.670;5.624;2023-11-19T10:07:27;35.10;;;6.70;;
63193;SDS011;49289;51.670;5.624;2023-11-19T10:09:14;32.30;;;6.30;;
63193;SDS011;49289;51.670;5.624;2023-11-19T10:11:01;38.00;;;6.80;;
63193;SDS011;49289;51.670;5.624;2023-11-19T10:12:50;36.10;;;7.10;;
63193;SDS011;49289;51.670;5.624;2023-11-19T10:14:36;33.40;;;6.60;;
63193;SDS011;49289;51.670;5.624;2023-11-19T10:16:27;31.70;;;6.80;;
63193;SDS011;49289;51.670;5.624;2023-11-19T10:18:13;32.50;;;6.30;;
63193;SDS011;49289;51.670;5.624;2023-11-19T10:20:00;29.20;;;6.40;;
63193;SDS011;49289;51.670;5.624;2023-11-19T10:21:47;33.00;;;6.50;;
63193;SDS011;49289;51.670;5.624;2023-11-19T10:23:41;32.60;;;5.90;;
63193;SDS011;49289;51.670;5.624;2023-11-19T10:25:33;35.50;;;6.90;;
63193;SDS011;49289;51.670;5.624;2023-11-19T10:27:20;33.80;;;6.90;;
63193;SDS011;49289;51.670;5.624;2023-11-19T10:29:09;35.00;;;6.50;;
63193;SDS011;49289;51.670;5.624;2023-11-19T10:30:58;33.50;;;6.60;;
63193;SDS011;49289;51.670;5.624;2023-11-19T10:32:45;32.90;;;6.60;;